createdAt,value
2017-12-04T00:00:58.883Z,6.26
2017-12-04T00:03:25.046Z,6.25
2017-12-04T00:05:51.218Z,6.28
2017-12-04T00:08:17.456Z,6.34
2017-12-04T00:10:43.651Z,6.30
2017-12-04T00:13:09.840Z,6.23
2017-12-04T00:15:36.064Z,6.21
2017-12-04T00:18:02.224Z,6.21
2017-12-04T00:20:28.412Z,6.15
2017-12-04T00:22:54.651Z,6.19
2017-12-04T00:25:20.849Z,6.22
2017-12-04T00:27:47.086Z,6.15
2017-12-04T00:30:13.306Z,6.12
2017-12-04T00:32:39.493Z,6.13
2017-12-04T00:35:05.686Z,6.21
2017-12-04T00:37:31.915Z,6.25
2017-12-04T00:39:58.116Z,6.32
2017-12-04T00:42:24.299Z,6.35
2017-12-04T00:44:50.517Z,6.37
2017-12-04T00:47:16.694Z,6.34
2017-12-04T00:49:42.910Z,6.39
2017-12-04T00:52:09.147Z,6.42
2017-12-04T00:54:35.356Z,6.32
2017-12-04T00:57:01.557Z,6.39
2017-12-04T00:59:27.789Z,6.39
2017-12-04T01:01:53.973Z,6.32
2017-12-04T01:04:20.171Z,6.24
2017-12-04T01:06:46.406Z,6.31
2017-12-04T01:09:12.604Z,6.37
2017-12-04T01:11:38.812Z,6.33
2017-12-04T01:14:05.046Z,6.24
2017-12-04T01:16:31.234Z,6.11
2017-12-04T01:18:57.500Z,6.15
2017-12-04T01:21:23.728Z,6.23
2017-12-04T01:23:49.939Z,6.30
2017-12-04T01:26:16.128Z,6.32
2017-12-04T01:28:42.360Z,6.32
2017-12-04T01:31:08.569Z,6.36
2017-12-04T01:33:34.761Z,6.34
2017-12-04T01:36:00.962Z,6.33
2017-12-04T01:38:27.162Z,6.30
2017-12-04T01:40:53.355Z,6.36
2017-12-04T01:43:19.598Z,6.41
2017-12-04T01:45:45.833Z,6.40
2017-12-04T01:48:12.020Z,6.38
2017-12-04T01:50:38.257Z,6.36
2017-12-04T01:53:04.463Z,6.37
2017-12-04T01:55:30.659Z,6.41
2017-12-04T01:57:56.894Z,6.41
2017-12-04T02:00:23.103Z,6.35
2017-12-04T02:02:49.292Z,6.38
2017-12-04T02:05:15.521Z,6.40
2017-12-04T02:07:41.719Z,6.40
2017-12-04T02:10:07.931Z,6.42
2017-12-04T02:12:34.186Z,6.44
2017-12-04T02:15:00.369Z,6.41
2017-12-04T02:17:26.575Z,6.39
2017-12-04T02:19:52.881Z,6.37
2017-12-04T02:22:19.089Z,6.41
2017-12-04T02:24:45.292Z,6.43
2017-12-04T02:27:11.522Z,6.43
2017-12-04T02:29:37.711Z,6.33
2017-12-04T02:32:03.897Z,6.35
2017-12-04T02:34:30.115Z,6.38
2017-12-04T02:36:56.328Z,6.41
2017-12-04T02:39:22.572Z,6.36
2017-12-04T02:41:48.837Z,6.34
2017-12-04T02:44:15.041Z,6.37
2017-12-04T02:46:41.231Z,6.37
2017-12-04T02:49:07.453Z,6.30
2017-12-04T02:51:33.652Z,6.23
2017-12-04T02:53:59.851Z,6.30
2017-12-04T02:56:26.090Z,6.33
2017-12-04T02:58:52.262Z,6.37
2017-12-04T03:01:18.453Z,6.41
2017-12-04T03:03:44.690Z,6.37
2017-12-04T03:06:10.880Z,6.29
2017-12-04T03:08:37.070Z,6.28
2017-12-04T03:11:03.347Z,6.31
2017-12-04T03:13:29.623Z,6.35
2017-12-04T03:15:55.816Z,6.31
2017-12-04T03:18:22.049Z,6.27
2017-12-04T03:20:48.228Z,6.26
2017-12-04T03:23:14.425Z,6.18
2017-12-04T03:25:40.744Z,6.22
2017-12-04T03:28:06.945Z,6.21
2017-12-04T03:30:33.132Z,6.21
2017-12-04T03:32:59.365Z,6.20
2017-12-04T03:35:25.569Z,6.25
2017-12-04T03:37:51.761Z,6.28
2017-12-04T03:40:18.008Z,6.31
2017-12-04T03:42:44.219Z,6.33
2017-12-04T03:45:10.414Z,6.39
2017-12-04T03:47:36.658Z,6.42
2017-12-04T03:50:02.853Z,6.47
2017-12-04T03:52:29.039Z,6.46
2017-12-04T03:54:55.275Z,6.43
2017-12-04T03:57:21.498Z,6.36
2017-12-04T03:59:47.698Z,6.41
2017-12-04T04:02:13.942Z,6.38
2017-12-04T04:04:40.114Z,6.34
2017-12-04T04:07:06.318Z,6.33
2017-12-04T04:09:32.524Z,6.32
2017-12-04T04:11:58.719Z,6.33
2017-12-04T04:14:24.902Z,6.31
2017-12-04T04:16:51.114Z,6.28
2017-12-04T04:19:17.307Z,6.29
2017-12-04T04:21:43.493Z,6.01
2017-12-04T04:24:09.779Z,5.88
2017-12-04T04:26:35.983Z,5.79
2017-12-04T04:29:02.171Z,5.79
2017-12-04T04:31:28.407Z,5.65
2017-12-04T04:33:54.596Z,5.64
2017-12-04T04:36:20.788Z,5.63
2017-12-04T04:38:47.009Z,5.61
2017-12-04T04:41:13.201Z,5.59
2017-12-04T04:43:39.396Z,5.57
2017-12-04T04:46:05.611Z,5.56
2017-12-04T04:48:31.797Z,5.56
2017-12-04T04:50:57.989Z,5.56
2017-12-04T04:53:24.215Z,5.46
2017-12-04T04:55:50.415Z,5.48
2017-12-04T04:58:16.626Z,5.47
2017-12-04T05:00:43.026Z,5.45
2017-12-04T05:03:09.219Z,5.31
2017-12-04T05:05:35.395Z,5.25
2017-12-04T05:08:01.626Z,5.06
2017-12-04T05:10:28.061Z,4.93
2017-12-04T05:12:54.236Z,4.92
2017-12-04T05:15:20.465Z,4.93
2017-12-04T05:17:46.674Z,4.96
2017-12-04T05:20:12.884Z,4.89
2017-12-04T05:22:39.136Z,4.97
2017-12-04T05:25:05.316Z,4.99
2017-12-04T05:27:31.497Z,4.94
2017-12-04T05:29:57.735Z,4.98
2017-12-04T05:32:23.942Z,4.91
2017-12-04T05:34:50.127Z,4.88
2017-12-04T05:37:16.360Z,4.88
2017-12-04T05:39:42.554Z,4.87
2017-12-04T05:42:08.761Z,4.90
2017-12-04T05:44:35.159Z,4.95
2017-12-04T05:47:01.357Z,4.96
2017-12-04T05:49:27.539Z,5.02
2017-12-04T05:54:26.882Z,4.93
2017-12-04T05:56:53.073Z,4.94
2017-12-04T05:59:19.246Z,4.86
2017-12-04T06:01:45.478Z,4.83
2017-12-04T06:04:11.661Z,4.89
2017-12-04T06:06:37.833Z,4.81
2017-12-04T06:09:04.051Z,4.70
2017-12-04T06:11:30.294Z,4.67
2017-12-04T06:13:56.515Z,4.72
2017-12-04T06:16:22.736Z,4.75
2017-12-04T06:18:48.929Z,4.79
2017-12-04T06:21:15.129Z,4.84
2017-12-04T06:23:41.352Z,4.94
2017-12-04T06:26:07.541Z,4.95
2017-12-04T06:28:33.733Z,4.94
2017-12-04T06:30:59.966Z,4.99
2017-12-04T06:33:26.140Z,4.99
2017-12-04T06:35:52.335Z,4.97
2017-12-04T06:38:18.553Z,4.91
2017-12-04T06:40:44.738Z,4.90
2017-12-04T06:43:11.134Z,4.89
2017-12-04T06:45:37.358Z,4.86
2017-12-04T06:48:03.526Z,4.72
2017-12-04T06:50:29.708Z,4.84
2017-12-04T06:52:56.111Z,4.85
2017-12-04T06:55:22.298Z,4.83
2017-12-04T06:57:48.475Z,4.86
2017-12-04T07:00:14.699Z,5.10
2017-12-04T07:02:41.066Z,5.11
2017-12-04T07:05:07.247Z,5.13
2017-12-04T07:07:33.498Z,5.25
2017-12-04T07:09:59.714Z,5.43
2017-12-04T07:12:25.900Z,5.58
2017-12-04T07:14:52.109Z,5.79
2017-12-04T07:17:18.298Z,5.82
2017-12-04T07:19:44.502Z,5.88
2017-12-04T07:22:10.746Z,5.92
2017-12-04T07:24:36.938Z,5.97
2017-12-04T07:27:03.144Z,5.97
2017-12-04T07:29:29.405Z,5.94
2017-12-04T07:31:55.806Z,5.85
2017-12-04T07:34:22.239Z,5.88
2017-12-04T07:36:48.456Z,5.82
2017-12-04T07:39:14.658Z,5.78
2017-12-04T07:41:40.866Z,5.82
2017-12-04T07:44:07.109Z,5.82
2017-12-04T07:46:33.337Z,5.79
2017-12-04T07:48:59.528Z,5.71
2017-12-04T07:51:25.751Z,5.76
2017-12-04T07:53:51.958Z,5.82
2017-12-04T07:56:18.153Z,5.96
2017-12-04T07:58:44.387Z,6.09
2017-12-04T08:01:10.576Z,6.07
2017-12-04T08:03:36.769Z,6.15
2017-12-04T08:06:03.018Z,6.19
2017-12-04T08:08:29.213Z,6.30
2017-12-04T08:10:55.405Z,6.32
2017-12-04T08:13:21.649Z,6.38
2017-12-04T08:15:47.849Z,6.39
2017-12-04T08:18:14.056Z,6.35
2017-12-04T08:20:40.471Z,6.30
2017-12-04T08:23:06.681Z,6.22
2017-12-04T08:25:32.870Z,6.16
2017-12-04T08:27:59.102Z,6.17
2017-12-04T08:30:25.294Z,6.18
2017-12-04T08:32:51.460Z,6.29
2017-12-04T08:35:17.695Z,6.22
2017-12-04T08:37:43.899Z,6.40
2017-12-04T08:40:10.210Z,6.40
2017-12-04T08:42:36.449Z,6.58
2017-12-04T08:45:02.690Z,6.70
2017-12-04T08:47:28.888Z,6.81
2017-12-04T08:49:55.225Z,6.88
2017-12-04T08:52:21.469Z,6.94
2017-12-04T08:54:47.752Z,7.07
2017-12-04T08:57:13.985Z,7.27
2017-12-04T08:59:40.192Z,7.44
2017-12-04T09:02:06.389Z,7.29
2017-12-04T09:04:39.683Z,7.54
2017-12-04T09:06:58.896Z,7.65
2017-12-04T09:09:25.100Z,7.66
2017-12-04T09:11:51.334Z,7.64
2017-12-04T09:14:17.533Z,7.49
2017-12-04T09:16:43.716Z,7.47
2017-12-04T09:19:09.948Z,7.50
2017-12-04T09:21:36.172Z,7.49
2017-12-04T09:24:02.369Z,7.27
2017-12-04T09:26:28.656Z,7.15
2017-12-04T09:28:54.836Z,6.99
2017-12-04T09:31:21.066Z,6.79
2017-12-04T09:33:47.301Z,6.55
2017-12-04T09:36:13.527Z,6.66
2017-12-04T09:38:39.762Z,6.72
2017-12-04T09:41:05.986Z,6.80
2017-12-04T09:43:32.193Z,6.80
2017-12-04T09:45:58.399Z,6.79
2017-12-04T09:48:24.625Z,6.72
2017-12-04T09:50:50.833Z,6.71
2017-12-04T09:53:17.052Z,6.57
2017-12-04T09:55:43.286Z,6.52
2017-12-04T09:58:09.470Z,6.50
2017-12-04T10:00:35.673Z,6.26
2017-12-04T10:03:01.894Z,6.21
2017-12-04T10:05:28.099Z,6.32
2017-12-04T10:07:54.290Z,6.38
2017-12-04T10:10:20.557Z,6.41
2017-12-04T10:12:46.734Z,6.38
2017-12-04T10:15:12.930Z,6.47
2017-12-04T10:17:39.167Z,6.57
2017-12-04T10:20:05.368Z,6.72
2017-12-04T10:22:31.571Z,6.73
2017-12-04T10:24:57.809Z,6.69
2017-12-04T10:27:24.352Z,6.67
2017-12-04T10:29:50.537Z,6.56
2017-12-04T10:32:16.786Z,6.54
2017-12-04T10:34:42.999Z,6.58
2017-12-04T10:37:09.185Z,6.65
2017-12-04T10:39:35.480Z,6.53
2017-12-04T10:42:01.720Z,6.47
2017-12-04T10:44:28.007Z,6.66
2017-12-04T10:46:54.291Z,6.54
2017-12-04T10:49:20.493Z,6.48
2017-12-04T10:51:46.754Z,6.61
2017-12-04T10:54:12.962Z,6.58
2017-12-04T10:56:39.171Z,6.55
2017-12-04T10:59:05.412Z,6.22
2017-12-04T11:01:31.618Z,6.15
2017-12-04T11:03:57.819Z,6.08
2017-12-04T11:06:24.061Z,6.06
2017-12-04T11:08:50.330Z,6.20
2017-12-04T11:11:16.509Z,6.23
2017-12-04T11:13:42.759Z,6.43
2017-12-04T11:16:08.979Z,6.24
2017-12-04T11:18:35.154Z,6.31
2017-12-04T11:21:01.372Z,6.41
2017-12-04T11:23:27.566Z,6.22
2017-12-04T11:25:53.773Z,6.19
2017-12-04T11:28:20.005Z,6.10
2017-12-04T11:30:46.215Z,5.90
2017-12-04T11:33:12.424Z,5.95
2017-12-04T11:35:38.651Z,5.99
2017-12-04T11:38:04.846Z,6.04
2017-12-04T11:40:31.043Z,5.74
2017-12-04T11:42:57.261Z,5.58
2017-12-04T11:45:23.461Z,5.75
2017-12-04T11:47:49.633Z,5.90
2017-12-04T11:50:16.094Z,5.89
2017-12-04T11:52:42.298Z,5.87
2017-12-04T11:55:08.521Z,5.81
2017-12-04T11:57:34.745Z,5.70
2017-12-04T12:00:00.922Z,5.85
2017-12-04T12:02:27.095Z,5.75
2017-12-04T12:04:53.337Z,5.76
2017-12-04T12:07:19.528Z,5.70
2017-12-04T12:09:45.717Z,5.64
2017-12-04T12:12:11.957Z,5.63
2017-12-04T12:14:38.153Z,5.71
2017-12-04T12:17:04.350Z,5.67
2017-12-04T12:19:30.583Z,5.80
2017-12-04T12:21:56.895Z,5.85
2017-12-04T12:24:23.087Z,5.99
2017-12-04T12:26:49.316Z,6.15
2017-12-04T12:29:15.597Z,6.27
2017-12-04T12:31:42.035Z,6.33
2017-12-04T12:34:08.645Z,6.38
2017-12-04T12:36:35.301Z,6.25
2017-12-04T12:39:01.494Z,6.04
2017-12-04T12:41:27.953Z,5.91
2017-12-04T12:43:54.153Z,5.90
2017-12-04T12:46:20.429Z,6.05
2017-12-04T12:48:47.049Z,6.04
2017-12-04T12:51:13.247Z,6.07
2017-12-04T12:53:39.505Z,6.02
2017-12-04T12:56:05.940Z,5.98
2017-12-04T12:58:32.399Z,6.09
2017-12-04T13:00:58.819Z,6.15
2017-12-04T13:03:25.043Z,6.18
2017-12-04T13:05:51.475Z,6.18
2017-12-04T13:08:17.671Z,6.23
2017-12-04T13:10:43.941Z,6.18
2017-12-04T13:13:10.124Z,6.15
2017-12-04T13:15:36.388Z,6.13
2017-12-04T13:18:02.640Z,6.15
2017-12-04T13:20:29.064Z,6.13
2017-12-04T13:22:55.287Z,6.14
2017-12-04T13:25:21.519Z,6.13
2017-12-04T13:27:47.743Z,6.01
2017-12-04T13:30:14.156Z,6.08
2017-12-04T13:32:40.413Z,6.21
2017-12-04T13:35:06.637Z,6.40
2017-12-04T13:37:32.821Z,6.50
2017-12-04T13:39:59.044Z,6.45
2017-12-04T13:42:25.465Z,6.41
2017-12-04T13:44:51.646Z,6.33
2017-12-04T13:47:17.984Z,6.26
2017-12-04T13:49:44.193Z,6.20
2017-12-04T13:52:10.385Z,6.18
2017-12-04T13:54:37.079Z,6.09
2017-12-04T13:57:03.282Z,6.09
2017-12-04T13:59:29.531Z,5.88
2017-12-04T14:01:55.752Z,5.88
2017-12-04T14:04:21.976Z,5.73
2017-12-04T14:06:48.174Z,5.68
2017-12-04T14:09:14.523Z,5.58
2017-12-04T14:11:40.715Z,5.57
2017-12-04T14:14:07.090Z,5.52
2017-12-04T14:16:33.537Z,5.53
2017-12-04T14:18:59.737Z,5.48
2017-12-04T14:21:25.995Z,5.49
2017-12-04T14:23:52.202Z,5.58
2017-12-04T14:26:18.440Z,5.58
2017-12-04T14:28:44.886Z,5.50
2017-12-04T14:31:11.328Z,5.46
2017-12-04T14:33:37.509Z,5.57
2017-12-04T14:36:03.730Z,5.59
2017-12-04T14:38:30.202Z,5.54
2017-12-04T14:40:56.451Z,5.50
2017-12-04T14:43:22.632Z,5.53
2017-12-04T14:45:49.058Z,5.54
2017-12-04T14:48:15.262Z,5.56
2017-12-04T14:50:41.437Z,5.57
2017-12-04T14:53:07.781Z,5.51
2017-12-04T14:55:33.944Z,5.55
2017-12-04T14:58:00.245Z,5.54
2017-12-04T15:00:26.466Z,5.56
2017-12-04T15:02:52.646Z,5.40
2017-12-04T15:05:18.936Z,5.34
2017-12-04T15:07:45.400Z,5.39
2017-12-04T15:10:11.580Z,5.32
2017-12-04T15:12:38.010Z,5.21
2017-12-04T15:15:04.257Z,5.30
2017-12-04T15:17:30.471Z,5.33
2017-12-04T15:19:56.717Z,5.34
2017-12-04T15:22:23.144Z,5.27
2017-12-04T15:24:49.311Z,5.25
2017-12-04T15:27:15.612Z,5.26
2017-12-04T15:29:42.022Z,5.22
2017-12-04T15:32:08.265Z,5.20
2017-12-04T15:34:34.498Z,5.26
2017-12-04T15:37:01.125Z,5.24
2017-12-04T15:39:27.360Z,5.25
2017-12-04T15:41:53.984Z,5.26
2017-12-04T15:44:20.205Z,5.30
2017-12-04T15:46:46.371Z,5.30
2017-12-04T15:49:12.689Z,5.27
2017-12-04T15:51:38.890Z,5.29
2017-12-04T15:54:05.073Z,5.31
2017-12-04T15:56:31.262Z,5.33
2017-12-04T15:58:57.601Z,5.36
2017-12-04T16:01:23.829Z,5.33
2017-12-04T16:03:50.057Z,5.32
2017-12-04T16:06:16.260Z,5.35
2017-12-04T16:08:42.432Z,5.33
2017-12-04T16:11:08.647Z,5.36
2017-12-04T16:13:34.876Z,5.33
2017-12-04T16:16:01.200Z,5.34
2017-12-04T16:18:27.363Z,5.30
2017-12-04T16:20:53.578Z,5.29
2017-12-04T16:23:20.081Z,5.27
2017-12-04T16:25:46.306Z,5.18
2017-12-04T16:28:12.937Z,5.17
2017-12-04T16:30:39.369Z,5.17
2017-12-04T16:33:05.543Z,5.24
2017-12-04T16:35:32.032Z,5.24
2017-12-04T16:37:58.214Z,5.23
2017-12-04T16:40:24.386Z,5.21
2017-12-04T16:42:50.638Z,5.13
2017-12-04T16:45:17.114Z,5.04
2017-12-04T16:47:43.300Z,5.13
2017-12-04T16:50:09.618Z,5.18
2017-12-04T16:52:35.842Z,5.15
2017-12-04T16:55:02.017Z,5.18
2017-12-04T16:57:28.666Z,5.14
2017-12-04T16:59:54.867Z,5.12
2017-12-04T17:02:21.076Z,5.02
2017-12-04T17:04:47.399Z,5.14
2017-12-04T17:07:13.842Z,5.17
2017-12-04T17:09:40.017Z,5.09
2017-12-04T17:12:06.243Z,5.08
2017-12-04T17:14:32.529Z,5.15
2017-12-04T17:16:58.698Z,5.11
2017-12-04T17:19:25.178Z,5.11
2017-12-04T17:21:51.415Z,5.15
2017-12-04T17:24:17.617Z,5.20
2017-12-04T17:26:43.846Z,5.18
2017-12-04T17:29:10.103Z,5.17
2017-12-04T17:31:36.284Z,5.17
2017-12-04T17:34:02.765Z,5.12
2017-12-04T17:36:29.201Z,5.10
2017-12-04T17:38:55.375Z,5.06
2017-12-04T17:41:21.654Z,5.02
2017-12-04T17:43:47.831Z,4.93
2017-12-04T17:46:14.058Z,4.90
2017-12-04T17:48:40.272Z,4.80
2017-12-04T17:51:06.513Z,4.74
2017-12-04T17:53:32.785Z,4.61
2017-12-04T17:55:58.984Z,4.56
2017-12-04T17:58:25.258Z,4.57
2017-12-04T18:00:51.467Z,4.48
2017-12-04T18:03:17.699Z,4.39
2017-12-04T18:05:43.897Z,4.33
2017-12-04T18:08:10.078Z,4.37
2017-12-04T18:10:36.384Z,4.33
2017-12-04T18:13:02.591Z,4.31
2017-12-04T18:15:28.836Z,4.30
2017-12-04T18:17:55.056Z,4.32
2017-12-04T18:20:21.330Z,4.35
2017-12-04T18:22:47.528Z,4.35
2017-12-04T18:25:14.178Z,4.22
2017-12-04T18:27:40.405Z,4.22
2017-12-04T18:30:06.827Z,4.21
2017-12-04T18:32:33.041Z,4.17
2017-12-04T18:34:59.290Z,4.17
2017-12-04T18:37:25.451Z,4.12
2017-12-04T18:39:51.680Z,4.16
2017-12-04T18:42:17.841Z,4.10
2017-12-04T18:44:44.184Z,4.18
2017-12-04T18:47:10.649Z,4.24
2017-12-04T18:49:36.884Z,4.26
2017-12-04T18:52:03.282Z,4.09
2017-12-04T18:54:29.525Z,4.16
2017-12-04T18:56:55.692Z,4.17
2017-12-04T18:59:21.981Z,4.18
2017-12-04T19:01:48.605Z,4.14
2017-12-04T19:04:14.758Z,4.09
2017-12-04T19:06:40.935Z,4.20
2017-12-04T19:09:07.302Z,4.11
2017-12-04T19:11:33.480Z,4.10
2017-12-04T19:13:59.785Z,4.14
2017-12-04T19:16:26.188Z,4.14
2017-12-04T19:18:52.357Z,4.19
2017-12-04T19:21:18.540Z,4.07
2017-12-04T19:23:44.742Z,4.08
2017-12-04T19:26:10.913Z,4.11
2017-12-04T19:28:37.329Z,4.12
2017-12-04T19:31:03.552Z,4.04
2017-12-04T19:33:29.810Z,4.02
2017-12-04T19:35:56.240Z,4.08
2017-12-04T19:38:22.467Z,4.08
2017-12-04T19:40:48.649Z,3.94
2017-12-04T19:43:14.924Z,3.89
2017-12-04T19:45:41.337Z,3.75
2017-12-04T19:48:07.589Z,3.72
2017-12-04T19:50:33.773Z,3.72
2017-12-04T19:53:00.051Z,3.66
2017-12-04T19:55:26.423Z,3.51
2017-12-04T19:57:52.710Z,3.66
2017-12-04T20:00:19.140Z,3.61
2017-12-04T20:02:45.323Z,3.51
2017-12-04T20:05:11.495Z,3.41
2017-12-04T20:07:37.696Z,3.29
2017-12-04T20:10:03.873Z,3.24
2017-12-04T20:12:30.074Z,3.08
2017-12-04T20:14:56.719Z,2.98
2017-12-04T20:17:22.942Z,2.96
2017-12-04T20:19:49.157Z,2.94
2017-12-04T20:22:15.366Z,2.90
2017-12-04T20:24:41.606Z,2.97
2017-12-04T20:27:07.859Z,2.96
2017-12-04T20:29:34.292Z,2.88
2017-12-04T20:32:00.498Z,2.92
2017-12-04T20:34:26.663Z,2.93
2017-12-04T20:36:52.856Z,2.94
2017-12-04T20:39:19.049Z,2.94
2017-12-04T20:41:45.641Z,2.91
2017-12-04T20:44:11.842Z,2.91
2017-12-04T20:46:38.025Z,2.89
2017-12-04T20:49:04.303Z,2.81
2017-12-04T20:51:30.521Z,2.77
2017-12-04T20:53:56.713Z,2.66
2017-12-04T20:56:22.992Z,2.64
2017-12-04T20:58:49.202Z,2.60
2017-12-04T21:01:15.374Z,2.51
2017-12-04T21:03:41.693Z,2.48
2017-12-04T21:06:07.949Z,2.32
2017-12-04T21:08:34.106Z,2.33
2017-12-04T21:11:00.260Z,2.25
2017-12-04T21:13:26.477Z,2.20
2017-12-04T21:15:53.026Z,2.24
2017-12-04T21:18:19.218Z,2.19
2017-12-04T21:20:45.494Z,2.19
2017-12-04T21:23:11.673Z,2.20
2017-12-04T21:25:37.860Z,2.19
2017-12-04T21:28:04.057Z,2.18
2017-12-04T21:30:30.238Z,2.16
2017-12-04T21:32:56.633Z,2.11
2017-12-04T21:35:22.854Z,1.98
2017-12-04T21:37:49.032Z,2.05
2017-12-04T21:40:15.333Z,2.08
2017-12-04T21:42:41.708Z,2.13
2017-12-04T21:45:07.897Z,2.10
2017-12-04T21:47:34.087Z,2.05
2017-12-04T21:50:00.432Z,2.09
2017-12-04T21:52:26.613Z,2.11
2017-12-04T21:54:52.805Z,2.09
2017-12-04T21:57:19.284Z,2.05
2017-12-04T21:59:45.568Z,2.05
2017-12-04T22:02:11.785Z,2.00
2017-12-04T22:04:38.000Z,1.95
2017-12-04T22:07:04.241Z,1.85
2017-12-04T22:09:30.417Z,1.82
2017-12-04T22:11:56.691Z,1.78
2017-12-04T22:14:22.912Z,1.76
2017-12-04T22:16:49.081Z,1.75
2017-12-04T22:19:15.304Z,1.60
2017-12-04T22:21:41.505Z,1.54
2017-12-04T22:24:07.671Z,1.48
2017-12-04T22:26:33.895Z,1.52
2017-12-04T22:29:00.069Z,1.44
2017-12-04T22:31:26.542Z,1.39
2017-12-04T22:33:52.754Z,1.32
2017-12-04T22:36:18.938Z,1.28
2017-12-04T22:38:45.193Z,1.18
2017-12-04T22:41:11.455Z,1.02
2017-12-04T22:43:37.629Z,1.15
2017-12-04T22:46:03.807Z,1.18
2017-12-04T22:48:30.041Z,1.18
2017-12-04T22:50:56.219Z,1.13
2017-12-04T22:53:22.405Z,1.06
2017-12-04T22:55:48.606Z,1.11
2017-12-04T22:58:14.838Z,1.05
2017-12-04T23:00:41.015Z,0.99
2017-12-04T23:03:07.230Z,0.99
2017-12-04T23:05:33.416Z,0.96
2017-12-04T23:07:59.749Z,0.97
2017-12-04T23:10:26.402Z,0.99
2017-12-04T23:12:52.618Z,0.97
2017-12-04T23:15:19.038Z,1.06
2017-12-04T23:17:45.709Z,1.09
2017-12-04T23:20:11.932Z,1.04
2017-12-04T23:22:38.147Z,1.04
2017-12-04T23:25:04.582Z,1.09
2017-12-04T23:27:30.858Z,1.09
2017-12-04T23:29:57.459Z,1.15
2017-12-04T23:32:23.689Z,1.24
2017-12-04T23:34:50.126Z,1.17
2017-12-04T23:37:16.347Z,1.12
2017-12-04T23:39:42.554Z,1.16
2017-12-04T23:42:08.737Z,1.05
2017-12-04T23:44:34.929Z,1.03
2017-12-04T23:47:01.250Z,0.96
2017-12-04T23:49:27.482Z,0.87
2017-12-04T23:51:53.665Z,0.89
2017-12-04T23:54:19.938Z,0.88
2017-12-04T23:56:46.179Z,0.80
2017-12-04T23:59:12.411Z,0.82
